RYR8FY LGIR-EBCI
Flight info
| Callsign | RYR8FY |
|---|---|
| Flight time | N/A |
| Altitude | 38000 |
| Route | EPALO M749 DIRMI UM749 ATV DCT BITLA/N0439F400 DCT MAVAR DCT AKIKA DCT SOLGU DCT ETOBI DCT MONID DCT NIVES DCT ZARVE DCT ABISO DCT NANIT DCT ERKIR DCT BABEG DCT IDOVI Z104 ODVUX/N0356F280 Z104 GESLO N852 LNO |
| Aircraft | B738/M-SDE2E3FGHIRWXY/LB1 |
Departure
| Time | N/A |
|---|---|
| Airport | Heraklion International Nikos Kazantzakis Airport (LGIR) |
Arrival
| Time | 2026-05-07 18:37 |
|---|---|
| Airport | Brussels South Charleroi Airport (EBCI) |
| Time | Latitude | Longitude | Altitude | Speed | Heading |
|---|---|---|---|---|---|
| 2026-05-07 18:24 | 50.67504 | 5.31214 | 19725 ft | 404 kts | 253° |
| 2026-05-07 18:24 | 50.66711 | 5.26956 | 18879 ft | 403 kts | 253° |
| 2026-05-07 18:24 | 50.65922 | 5.22743 | 18130 ft | 399 kts | 253° |
| 2026-05-07 18:24 | 50.65120 | 5.18578 | 17403 ft | 395 kts | 251° |
| 2026-05-07 18:25 | 50.63871 | 5.14750 | 16673 ft | 393 kts | 233° |
| 2026-05-07 18:25 | 50.61903 | 5.11787 | 15946 ft | 393 kts | 215° |
| 2026-05-07 18:25 | 50.59396 | 5.09998 | 15218 ft | 392 kts | 196° |
| 2026-05-07 18:25 | 50.56770 | 5.09469 | 14324 ft | 380 kts | 183° |
| 2026-05-07 18:26 | 50.54138 | 5.09420 | 13347 ft | 385 kts | 181° |
| 2026-05-07 18:26 | 50.51452 | 5.09377 | 12465 ft | 386 kts | 181° |
| 2026-05-07 18:26 | 50.48772 | 5.09588 | 11719 ft | 385 kts | 171° |
| 2026-05-07 18:26 | 50.46325 | 5.11051 | 11396 ft | 372 kts | 150° |
| 2026-05-07 18:27 | 50.44441 | 5.13663 | 11261 ft | 356 kts | 129° |
| 2026-05-07 18:27 | 50.43338 | 5.17020 | 11190 ft | 340 kts | 107° |
| 2026-05-07 18:27 | 50.43103 | 5.20614 | 10905 ft | 325 kts | 85° |
| 2026-05-07 18:27 | 50.43773 | 5.23853 | 10370 ft | 307 kts | 58° |
| 2026-05-07 18:28 | 50.45272 | 5.26124 | 9626 ft | 299 kts | 29° |
| 2026-05-07 18:28 | 50.47235 | 5.26917 | 8875 ft | 292 kts | 359° |
| 2026-05-07 18:28 | 50.49151 | 5.26066 | 8122 ft | 286 kts | 329° |
| 2026-05-07 18:28 | 50.50486 | 5.23856 | 7376 ft | 281 kts | 298° |
| 2026-05-07 18:29 | 50.51091 | 5.20967 | 6712 ft | 274 kts | 279° |
| 2026-05-07 18:29 | 50.51352 | 5.18023 | 6466 ft | 274 kts | 279° |
| 2026-05-07 18:29 | 50.51624 | 5.15051 | 6340 ft | 275 kts | 278° |
| 2026-05-07 18:29 | 50.51879 | 5.12077 | 6239 ft | 275 kts | 277° |
| 2026-05-07 18:30 | 50.52128 | 5.09088 | 6175 ft | 276 kts | 277° |
| 2026-05-07 18:30 | 50.52372 | 5.06099 | 6112 ft | 276 kts | 277° |
| 2026-05-07 18:30 | 50.52614 | 5.03108 | 6083 ft | 276 kts | 277° |
| 2026-05-07 18:30 | 50.52854 | 5.00107 | 6082 ft | 276 kts | 277° |
| 2026-05-07 18:31 | 50.53102 | 4.97127 | 6082 ft | 276 kts | 277° |
| 2026-05-07 18:31 | 50.53358 | 4.94122 | 6082 ft | 276 kts | 277° |
| 2026-05-07 18:31 | 50.53611 | 4.91167 | 6078 ft | 268 kts | 277° |
| 2026-05-07 18:31 | 50.53853 | 4.88335 | 5937 ft | 258 kts | 277° |
| 2026-05-07 18:32 | 50.54091 | 4.85529 | 5563 ft | 259 kts | 277° |
| 2026-05-07 18:32 | 50.54323 | 4.82749 | 5099 ft | 253 kts | 277° |
| 2026-05-07 18:32 | 50.54546 | 4.80026 | 4498 ft | 249 kts | 277° |
| 2026-05-07 18:32 | 50.54759 | 4.77352 | 3908 ft | 244 kts | 277° |
| 2026-05-07 18:33 | 50.54697 | 4.74717 | 3344 ft | 239 kts | 255° |
| 2026-05-07 18:33 | 50.54028 | 4.72418 | 3159 ft | 228 kts | 242° |
| 2026-05-07 18:33 | 50.53300 | 4.70269 | 3084 ft | 216 kts | 243° |
| 2026-05-07 18:33 | 50.52673 | 4.68247 | 3028 ft | 197 kts | 244° |
| 2026-05-07 18:34 | 50.52115 | 4.66372 | 2964 ft | 182 kts | 245° |
| 2026-05-07 18:34 | 50.51601 | 4.64617 | 2924 ft | 174 kts | 245° |
| 2026-05-07 18:34 | 50.51094 | 4.62876 | 2758 ft | 171 kts | 245° |
| 2026-05-07 18:34 | 50.50607 | 4.61197 | 2540 ft | 168 kts | 245° |
| 2026-05-07 18:35 | 50.50124 | 4.59534 | 2320 ft | 166 kts | 245° |
| 2026-05-07 18:35 | 50.49648 | 4.57892 | 2102 ft | 165 kts | 245° |
| 2026-05-07 18:35 | 50.49170 | 4.56246 | 1883 ft | 164 kts | 245° |
| 2026-05-07 18:35 | 50.48701 | 4.54630 | 1667 ft | 164 kts | 245° |
| 2026-05-07 18:36 | 50.48227 | 4.52995 | 1450 ft | 164 kts | 245° |
| 2026-05-07 18:36 | 50.47762 | 4.51396 | 1253 ft | 156 kts | 245° |
| 2026-05-07 18:36 | 50.47318 | 4.49864 | 1034 ft | 150 kts | 245° |
| 2026-05-07 18:36 | 50.46885 | 4.48359 | 834 ft | 153 kts | 246° |
| 2026-05-07 18:37 | 50.46436 | 4.46837 | 660 ft | 154 kts | 245° |
| 2026-05-07 18:37 | 50.46035 | 4.45459 | 623 ft | 106 kts | 247° |
| 2026-05-07 18:37 | 50.45881 | 4.44916 | 622 ft | 37 kts | 248° |
| 2026-05-07 18:37 | 50.45951 | 4.44775 | 622 ft | 14 kts | 340° |
| 2026-05-07 18:38 | 50.46033 | 4.44824 | 622 ft | 13 kts | 51° |
| 2026-05-07 18:38 | 50.46073 | 4.44961 | 622 ft | 14 kts | 65° |
| 2026-05-07 18:38 | 50.46111 | 4.45092 | 622 ft | 13 kts | 65° |
| 2026-05-07 18:38 | 50.46148 | 4.45217 | 622 ft | 12 kts | 65° |
| 2026-05-07 18:39 | 50.46183 | 4.45338 | 622 ft | 12 kts | 65° |
| 2026-05-07 18:39 | 50.46220 | 4.45461 | 622 ft | 16 kts | 65° |
| 2026-05-07 18:39 | 50.46278 | 4.45665 | 622 ft | 23 kts | 66° |
| 2026-05-07 18:39 | 50.46342 | 4.45888 | 622 ft | 22 kts | 65° |
| 2026-05-07 18:40 | 50.46398 | 4.46081 | 622 ft | 21 kts | 65° |
| 2026-05-07 18:40 | 50.46457 | 4.46283 | 622 ft | 20 kts | 65° |
| 2026-05-07 18:40 | 50.46514 | 4.46475 | 622 ft | 16 kts | 65° |
| 2026-05-07 18:40 | 50.46592 | 4.46541 | 622 ft | 15 kts | 340° |
| 2026-05-07 18:41 | 50.46667 | 4.46604 | 622 ft | 14 kts | 64° |
| 2026-05-07 18:41 | 50.46707 | 4.46744 | 622 ft | 14 kts | 66° |
| 2026-05-07 18:41 | 50.46747 | 4.46881 | 622 ft | 13 kts | 65° |
| 2026-05-07 18:41 | 50.46785 | 4.47010 | 622 ft | 13 kts | 65° |
| 2026-05-07 18:42 | 50.46822 | 4.47134 | 622 ft | 12 kts | 65° |
| 2026-05-07 18:42 | 50.46871 | 4.47180 | 622 ft | 9 kts | 332° |
| 2026-05-07 18:42 | 50.46892 | 4.47165 | 622 ft | 0 kts | 335° |